Time;durP1;ratioP1;P1;durP2;ratioP2;P2;SDS_P1;SDS_P2;PMS_P1;PMS_P2;Temp;Humidity;BMP_temperature;BMP_pressure;BME280_temperature;BME280_humidity;BME280_pressure;Samples;Min_cycle;Max_cycle;Signal;HPM_P1;HPM_P2
2023/08/29 00:01:07;;;;;;;4.03;2.88;;;;;15.80;98068.00;;;;5093391;28;20151;-67
2023/08/29 00:03:33;;;;;;;3.90;3.05;;;;;15.80;98063.00;;;;5094808;28;20051;-67
2023/08/29 00:06:02;;;;;;;4.57;2.80;;;;;15.90;98060.00;;;;5094595;28;20036;-67
2023/08/29 00:08:29;;;;;;;5.43;3.22;;;;;16.00;98058.00;;;;5093259;28;20036;-67
2023/08/29 00:10:56;;;;;;;4.53;2.42;;;;;16.00;98056.00;;;;5094134;28;20074;-66
2023/08/29 00:13:23;;;;;;;2.92;2.67;;;;;16.00;98052.00;;;;5094502;28;20046;-66
2023/08/29 00:15:50;;;;;;;3.03;2.72;;;;;16.00;98048.00;;;;5076418;28;20071;-66
2023/08/29 00:18:19;;;;;;;3.67;2.40;;;;;16.00;98053.00;;;;5094316;28;20056;-66
2023/08/29 00:20:45;;;;;;;4.30;2.85;;;;;16.00;98051.00;;;;5093984;28;20067;-66
2023/08/29 00:23:12;;;;;;;5.88;3.15;;;;;16.00;98047.00;;;;5092767;28;20040;-67
2023/08/29 00:25:39;;;;;;;4.38;3.38;;;;;16.00;98051.00;;;;5094198;28;20048;-67
2023/08/29 00:28:07;;;;;;;2.95;2.75;;;;;16.00;98059.00;;;;5092813;28;20135;-65
2023/08/29 00:30:36;;;;;;;4.35;3.33;;;;;16.00;98062.00;;;;5092537;28;20070;-64
2023/08/29 00:33:04;;;;;;;3.08;2.88;;;;;16.00;98060.00;;;;5091986;28;20040;-65
2023/08/29 00:35:31;;;;;;;6.75;2.47;;;;;16.00;98048.00;;;;5092779;28;20078;-66
2023/08/29 00:37:58;;;;;;;3.63;2.67;;;;;16.00;98054.00;;;;5092493;28;20135;-66
2023/08/29 00:40:30;;;;;;;2.95;2.65;;;;;16.00;98050.00;;;;5075742;28;20052;-66
2023/08/29 00:43:00;;;;;;;3.67;2.83;;;;;15.90;98052.00;;;;5092510;28;20039;-66
2023/08/29 00:45:32;;;;;;;3.92;2.65;;;;;15.90;98053.00;;;;5092451;28;20040;-66
2023/08/29 00:48:00;;;;;;;3.25;2.90;;;;;16.00;98058.00;;;;5092486;28;20579;-66
2023/08/29 00:50:28;;;;;;;5.80;3.20;;;;;15.90;98069.00;;;;5092200;28;20097;-66
2023/08/29 00:52:58;;;;;;;3.47;2.97;;;;;15.90;98068.00;;;;5075541;28;20481;-65
2023/08/29 00:55:26;;;;;;;4.72;3.20;;;;;15.90;98069.00;;;;5075808;28;20052;-66
2023/08/29 00:57:56;;;;;;;4.75;3.67;;;;;16.00;98070.00;;;;5092110;28;20047;-66
2023/08/29 01:00:24;;;;;;;5.43;3.85;;;;;16.00;98066.00;;;;5092086;28;20051;-68
2023/08/29 01:02:51;;;;;;;4.13;3.55;;;;;16.00;98077.00;;;;5093401;28;20032;-66
2023/08/29 01:05:20;;;;;;;4.22;3.65;;;;;16.00;98074.00;;;;5091852;28;20055;-66
2023/08/29 01:07:52;;;;;;;5.28;3.70;;;;;15.90;98073.00;;;;5092517;28;20063;-65
2023/08/29 01:10:33;;;;;;;6.95;4.30;;;;;15.80;98070.00;;;;5092119;28;20075;-66
2023/08/29 01:13:21;;;;;;;4.30;3.88;;;;;15.80;98070.00;;;;5093482;28;20097;-67
2023/08/29 01:15:51;;;;;;;6.10;3.92;;;;;15.90;98067.00;;;;5075135;28;20044;-67
2023/08/29 01:18:19;;;;;;;4.85;3.60;;;;;15.90;98061.00;;;;5093279;28;20044;-66
2023/08/29 01:20:49;;;;;;;5.78;4.07;;;;;16.00;98068.00;;;;5074891;28;20055;-67
2023/08/29 01:23:42;;;;;;;4.95;3.70;;;;;16.10;98065.00;;;;5075205;28;20036;-66
2023/08/29 01:26:12;;;;;;;5.40;3.70;;;;;16.10;98059.00;;;;5092121;28;20143;-65
2023/08/29 01:28:42;;;;;;;6.32;4.25;;;;;16.10;98067.00;;;;5092148;28;20278;-66
2023/08/29 01:31:10;;;;;;;4.18;3.60;;;;;16.10;98073.00;;;;5092889;28;20044;-67
2023/08/29 01:33:39;;;;;;;3.70;3.40;;;;;16.00;98071.00;;;;5092999;28;20467;-66
2023/08/29 01:36:06;;;;;;;4.88;3.63;;;;;15.90;98073.00;;;;5091494;28;20040;-66
2023/08/29 01:38:33;;;;;;;3.90;3.40;;;;;15.90;98064.00;;;;5074895;28;20048;-66
2023/08/29 01:41:00;;;;;;;3.70;3.20;;;;;15.90;98064.00;;;;5092787;28;20040;-66
2023/08/29 01:43:26;;;;;;;3.97;3.20;;;;;15.90;98065.00;;;;5074605;28;20044;-66
2023/08/29 01:45:53;;;;;;;3.45;3.15;;;;;15.90;98069.00;;;;5092824;28;20087;-66
2023/08/29 01:48:21;;;;;;;3.90;3.33;;;;;15.90;98062.00;;;;5091222;28;20055;-66
2023/08/29 01:50:48;;;;;;;4.07;3.08;;;;;15.90;98056.00;;;;5090952;28;20148;-66
2023/08/29 01:53:15;;;;;;;5.13;3.58;;;;;15.90;98059.00;;;;5074683;28;20510;-66
2023/08/29 01:55:43;;;;;;;4.60;3.83;;;;;15.90;98056.00;;;;5092637;28;20119;-67
2023/08/29 01:58:10;;;;;;;4.85;3.47;;;;;15.90;98066.00;;;;5091289;28;20134;-67
2023/08/29 02:00:37;;;;;;;4.10;3.40;;;;;15.90;98066.00;;;;5091216;28;20473;-66
2023/08/29 02:03:04;;;;;;;6.03;3.97;;;;;15.70;98056.00;;;;5074470;28;20043;-65
2023/08/29 02:05:31;;;;;;;4.22;3.30;;;;;15.80;98050.00;;;;5091963;28;20115;-66
2023/08/29 02:07:58;;;;;;;4.18;3.67;;;;;15.80;98048.00;;;;5091799;28;20051;-66
2023/08/29 02:10:30;;;;;;;4.97;3.50;;;;;15.90;98052.00;;;;5093722;28;20051;-66
2023/08/29 02:12:56;;;;;;;4.55;3.72;;;;;15.90;98046.00;;;;5097578;28;20092;-66
2023/08/29 02:15:23;;;;;;;3.97;3.35;;;;;15.90;98040.00;;;;5098784;28;20062;-66
2023/08/29 02:17:51;;;;;;;3.85;3.42;;;;;15.80;98034.00;;;;5078196;28;20455;-66
2023/08/29 02:20:17;;;;;;;4.93;3.53;;;;;15.80;98040.00;;;;5099540;28;20060;-66
2023/08/29 02:22:44;;;;;;;5.18;3.83;;;;;15.70;98040.00;;;;5091674;28;20113;-69
2023/08/29 02:25:11;;;;;;;5.57;3.75;;;;;15.60;98032.00;;;;5092135;28;20042;-67
2023/08/29 02:27:38;;;;;;;4.82;3.92;;;;;15.70;98031.00;;;;5092338;28;20036;-67
2023/08/29 02:30:05;;;;;;;4.85;3.55;;;;;15.70;98027.00;;;;5091798;28;20044;-67
2023/08/29 02:32:34;;;;;;;5.18;3.58;;;;;15.70;98023.00;;;;5092091;28;20040;-68
2023/08/29 02:35:03;;;;;;;5.45;4.15;;;;;15.80;98021.00;;;;5090435;28;20481;-67
2023/08/29 02:37:30;;;;;;;4.57;3.95;;;;;15.90;98012.00;;;;5091011;28;20044;-68
2023/08/29 02:39:56;;;;;;;4.82;3.67;;;;;15.90;98011.00;;;;5090796;28;20075;-67
2023/08/29 02:42:23;;;;;;;3.72;3.10;;;;;15.80;98009.00;;;;5092008;28;20048;-68
2023/08/29 02:44:50;;;;;;;5.03;3.50;;;;;15.80;98012.00;;;;5091858;28;20452;-68
2023/08/29 02:47:16;;;;;;;3.90;3.50;;;;;15.70;98012.00;;;;5091018;28;20071;-68
2023/08/29 02:49:43;;;;;;;4.05;3.17;;;;;15.70;98009.00;;;;5090655;28;20520;-67
2023/08/29 02:52:09;;;;;;;5.15;3.67;;;;;15.70;98009.00;;;;5074129;28;20056;-68
2023/08/29 02:54:36;;;;;;;5.15;3.05;;;;;15.60;98012.00;;;;5092156;28;20078;-68
2023/08/29 02:57:03;;;;;;;4.47;3.70;;;;;15.60;98010.00;;;;5092866;28;20048;-68
2023/08/29 02:59:30;;;;;;;5.38;3.70;;;;;15.60;98002.00;;;;5094373;28;20044;-68
2023/08/29 03:01:57;;;;;;;5.28;3.92;;;;;15.50;98002.00;;;;5096047;28;20064;-68
2023/08/29 03:04:24;;;;;;;8.55;4.68;;;;;15.50;98006.00;;;;5094414;28;20089;-67
2023/08/29 03:06:51;;;;;;;5.03;3.75;;;;;15.50;97996.00;;;;5094635;28;20044;-68
2023/08/29 03:09:18;;;;;;;6.03;4.13;;;;;15.50;98004.00;;;;5095448;28;20126;-67
2023/08/29 03:11:44;;;;;;;4.80;4.32;;;;;15.50;98001.00;;;;5095686;28;20119;-68
2023/08/29 03:14:11;;;;;;;6.38;5.10;;;;;15.50;98003.00;;;;5094388;28;20040;-68
2023/08/29 03:16:38;;;;;;;6.15;4.50;;;;;15.50;97997.00;;;;5077967;28;20052;-68
2023/08/29 03:19:04;;;;;;;7.43;5.05;;;;;15.60;98001.00;;;;5078352;28;20044;-68
2023/08/29 03:21:31;;;;;;;6.88;5.38;;;;;15.60;98004.00;;;;5094050;28;20500;-67
2023/08/29 03:23:58;;;;;;;6.38;5.70;;;;;15.70;97998.00;;;;5094251;28;20093;-68
2023/08/29 03:26:24;;;;;;;6.07;5.20;;;;;15.70;98005.00;;;;5095345;28;20085;-66
2023/08/29 03:28:51;;;;;;;6.63;5.18;;;;;15.70;98002.00;;;;5095315;28;20467;-67
2023/08/29 03:31:18;;;;;;;6.55;5.28;;;;;15.70;98006.00;;;;5095075;28;20524;-67
2023/08/29 03:33:45;;;;;;;12.30;8.00;;;;;15.70;98015.00;;;;5093918;28;20653;-67
2023/08/29 03:36:12;;;;;;;7.85;6.93;;;;;15.60;98010.00;;;;5094000;28;20067;-67
2023/08/29 03:38:39;;;;;;;6.32;5.72;;;;;15.40;98013.00;;;;5095020;28;20046;-67
2023/08/29 03:41:07;;;;;;;7.07;5.95;;;;;15.40;98011.00;;;;5093610;28;20097;-67
2023/08/29 03:43:35;;;;;;;8.82;6.85;;;;;15.40;98002.00;;;;5093568;28;20047;-67
2023/08/29 03:46:08;;;;;;;8.32;5.70;;;;;15.50;98010.00;;;;5093840;28;20140;-67
2023/08/29 03:48:36;;;;;;;10.23;6.25;;;;;15.60;98004.00;;;;5093756;28;20044;-67
2023/08/29 03:51:06;;;;;;;6.47;5.30;;;;;15.50;98011.00;;;;5093132;28;20075;-67
2023/08/29 03:53:34;;;;;;;7.13;6.43;;;;;15.60;98005.00;;;;5093740;28;20039;-68
2023/08/29 03:56:03;;;;;;;6.20;5.57;;;;;15.60;98005.00;;;;5093492;28;20043;-67
2023/08/29 03:58:31;;;;;;;8.40;6.50;;;;;15.70;98003.00;;;;5093311;28;20450;-67
2023/08/29 04:00:58;;;;;;;10.38;5.82;;;;;15.70;98003.00;;;;5093234;28;20516;-65
2023/08/29 04:03:25;;;;;;;9.07;5.95;;;;;15.70;98007.00;;;;5093341;28;20043;-65
2023/08/29 04:05:52;;;;;;;8.63;6.50;;;;;15.60;98009.00;;;;5093335;28;20047;-65
2023/08/29 04:08:19;;;;;;;7.85;7.18;;;;;15.60;98005.00;;;;5093448;28;20043;-66
2023/08/29 04:10:46;;;;;;;7.40;6.60;;;;;15.70;98004.00;;;;5093279;28;20674;-66
2023/08/29 04:13:13;;;;;;;7.80;7.00;;;;;15.70;98000.00;;;;5096079;28;20136;-65
2023/08/29 04:15:40;;;;;;;10.60;7.53;;;;;15.70;98001.00;;;;5077070;28;20052;-66
2023/08/29 04:18:10;;;;;;;8.25;6.65;;;;;15.70;97999.00;;;;5097393;28;20040;-66
2023/08/29 04:20:37;;;;;;;6.47;5.78;;;;;15.60;98007.00;;;;5096211;28;20052;-65
2023/08/29 04:23:05;;;;;;;11.68;6.25;;;;;15.60;98003.00;;;;5100223;28;20040;-66
2023/08/29 04:25:34;;;;;;;7.65;5.70;;;;;15.70;98005.00;;;;5079834;28;20076;-66
2023/08/29 04:28:00;;;;;;;6.80;6.03;;;;;15.60;98002.00;;;;5079064;28;20040;-66
2023/08/29 04:30:27;;;;;;;8.68;6.80;;;;;15.70;98001.00;;;;5097635;28;20055;-66
2023/08/29 04:32:55;;;;;;;8.38;6.45;;;;;15.70;97997.00;;;;5094866;28;20040;-66
2023/08/29 04:35:21;;;;;;;6.15;5.55;;;;;15.70;97996.00;;;;5094957;28;20040;-65
2023/08/29 04:37:48;;;;;;;9.77;6.75;;;;;15.70;97994.00;;;;5094427;28;20040;-66
2023/08/29 04:40:17;;;;;;;9.75;6.32;;;;;15.70;97996.00;;;;5075925;28;20101;-65
2023/08/29 04:42:47;;;;;;;10.52;6.50;;;;;15.70;97992.00;;;;5076296;28;20073;-65
2023/08/29 04:45:14;;;;;;;10.85;6.00;;;;;15.70;97991.00;;;;5075814;28;20036;-65
2023/08/29 04:47:40;;;;;;;7.20;6.50;;;;;15.70;97998.00;;;;5092690;28;20048;-65
2023/08/29 04:50:07;;;;;;;11.23;7.45;;;;;15.70;97988.00;;;;5092444;28;20052;-65
2023/08/29 04:52:34;;;;;;;7.00;6.20;;;;;15.70;97987.00;;;;5093940;28;20058;-65
2023/08/29 04:55:01;;;;;;;5.82;5.22;;;;;15.70;97991.00;;;;5093707;28;20051;-67
2023/08/29 04:57:28;;;;;;;6.15;5.60;;;;;15.70;97994.00;;;;5092549;28;20073;-68
2023/08/29 04:59:55;;;;;;;9.30;6.78;;;;;15.70;97986.00;;;;5092161;28;20436;-68
2023/08/29 05:02:21;;;;;;;9.40;6.10;;;;;15.70;97983.00;;;;5092081;28;20142;-68
2023/08/29 05:04:48;;;;;;;9.45;6.40;;;;;15.80;97983.00;;;;5092123;28;20048;-68
2023/08/29 05:07:15;;;;;;;8.00;6.18;;;;;15.80;97985.00;;;;5093461;28;20044;-68
2023/08/29 05:09:41;;;;;;;6.20;5.60;;;;;15.80;97979.00;;;;5091896;28;20059;-68
2023/08/29 05:12:10;;;;;;;10.13;5.32;;;;;15.80;97989.00;;;;5093041;28;20097;-68
2023/08/29 05:14:38;;;;;;;6.70;5.88;;;;;15.80;97992.00;;;;5091658;28;20113;-68
2023/08/29 05:17:08;;;;;;;8.30;6.35;;;;;15.80;97988.00;;;;5091863;28;20040;-68
2023/08/29 05:19:34;;;;;;;6.60;5.90;;;;;15.80;97986.00;;;;5091886;28;20377;-68
2023/08/29 05:22:01;;;;;;;8.02;5.95;;;;;15.70;97990.00;;;;5091760;28;20051;-68
2023/08/29 05:24:28;;;;;;;7.13;6.43;;;;;15.80;97986.00;;;;5091682;28;20458;-68
2023/08/29 05:26:55;;;;;;;6.68;5.18;;;;;15.90;97983.00;;;;5093087;28;20048;-68
2023/08/29 05:29:21;;;;;;;9.43;5.65;;;;;15.90;97977.00;;;;5092505;28;20071;-68
2023/08/29 05:31:48;;;;;;;7.90;6.53;;;;;15.90;97985.00;;;;5091642;28;20052;-68
2023/08/29 05:34:15;;;;;;;6.43;5.82;;;;;15.90;97981.00;;;;5092845;28;20072;-68
2023/08/29 05:36:41;;;;;;;7.88;5.55;;;;;15.90;97978.00;;;;5092731;28;20044;-68
2023/08/29 05:39:08;;;;;;;8.45;6.00;;;;;16.00;97974.00;;;;5091494;28;20056;-67
2023/08/29 05:41:35;;;;;;;7.00;6.30;;;;;16.10;97983.00;;;;5092725;28;20043;-67
2023/08/29 05:44:01;;;;;;;9.82;6.38;;;;;16.10;97985.00;;;;5074616;28;20044;-67
2023/08/29 05:46:28;;;;;;;7.00;6.05;;;;;16.20;97987.00;;;;5092336;28;20044;-66
2023/08/29 05:48:54;;;;;;;6.18;5.63;;;;;16.20;97986.00;;;;5092705;28;20127;-67
2023/08/29 05:51:21;;;;;;;8.15;5.68;;;;;16.30;97993.00;;;;5092365;28;20055;-66
2023/08/29 05:53:48;;;;;;;8.27;5.88;;;;;16.30;97987.00;;;;5091507;28;20522;-66
2023/08/29 05:56:14;;;;;;;10.15;6.32;;;;;16.40;97979.00;;;;5092559;28;20125;-67
2023/08/29 05:58:41;;;;;;;11.32;6.40;;;;;16.50;97978.00;;;;5092405;28;20135;-67
2023/08/29 06:01:09;;;;;;;9.45;6.72;;;;;16.50;97986.00;;;;5090899;28;20048;-68
2023/08/29 06:03:36;;;;;;;9.70;6.93;;;;;16.60;97987.00;;;;5091099;28;20044;-68
2023/08/29 06:06:03;;;;;;;9.30;6.95;;;;;16.60;97989.00;;;;5091153;28;20519;-68
2023/08/29 06:08:33;;;;;;;9.98;8.63;;;;;16.80;97995.00;;;;5092293;28;20044;-68
2023/08/29 06:11:00;;;;;;;9.15;7.38;;;;;16.80;97995.00;;;;5092070;28;20055;-67
2023/08/29 06:13:27;;;;;;;7.68;6.93;;;;;16.80;97993.00;;;;5092084;28;20493;-67
2023/08/29 06:15:54;;;;;;;10.38;9.02;;;;;16.80;97996.00;;;;5092187;28;20060;-68
2023/08/29 06:18:20;;;;;;;14.18;9.68;;;;;16.90;98001.00;;;;5092228;28;20093;-68
2023/08/29 06:20:47;;;;;;;10.63;9.30;;;;;17.00;97999.00;;;;5090795;28;20040;-68
2023/08/29 06:23:14;;;;;;;11.68;9.60;;;;;17.00;97995.00;;;;5091159;28;20051;-68
2023/08/29 06:25:41;;;;;;;15.63;10.98;;;;;17.00;97998.00;;;;5090903;28;20040;-68
2023/08/29 06:28:08;;;;;;;16.25;10.35;;;;;17.10;98002.00;;;;5090855;28;20048;-67
2023/08/29 06:30:35;;;;;;;12.93;11.30;;;;;17.10;98003.00;;;;5091232;28;20516;-67
2023/08/29 06:33:06;;;;;;;19.95;13.70;;;;;17.20;97997.00;;;;5092108;28;20048;-67
2023/08/29 06:35:40;;;;;;;15.38;11.70;;;;;17.20;98005.00;;;;5090854;28;20143;-67
2023/08/29 06:38:06;;;;;;;;;;;;;17.30;98000.00;;;;5091669;28;20450;-67
2023/08/29 06:40:35;;;;;;;19.55;13.70;;;;;17.30;98003.00;;;;5091817;28;19971;-67
2023/08/29 06:43:01;;;;;;;24.40;16.40;;;;;17.40;98004.00;;;;5090882;28;20135;-67
2023/08/29 06:45:28;;;;;;;16.80;13.73;;;;;17.50;98006.00;;;;5091854;28;20504;-67
2023/08/29 06:47:54;;;;;;;15.98;12.73;;;;;17.60;98005.00;;;;5090754;28;20071;-67
2023/08/29 06:50:21;;;;;;;14.73;11.20;;;;;17.60;98004.00;;;;5090469;28;20493;-67
2023/08/29 06:52:48;;;;;;;14.88;12.05;;;;;17.70;98007.00;;;;5092223;28;20122;-68
2023/08/29 06:55:16;;;;;;;21.83;14.13;;;;;17.80;98008.00;;;;5090708;28;20473;-68
2023/08/29 06:57:42;;;;;;;21.42;16.38;;;;;17.80;97991.00;;;;5090652;28;20052;-68
2023/08/29 07:00:10;;;;;;;17.33;12.63;;;;;17.80;98000.00;;;;5092073;28;20050;-68
2023/08/29 07:02:37;;;;;;;17.92;13.30;;;;;17.90;97998.00;;;;5091835;28;20501;-67
2023/08/29 07:05:04;;;;;;;16.08;12.25;;;;;18.00;98000.00;;;;5091598;28;20040;-67
2023/08/29 07:07:31;;;;;;;20.45;12.60;;;;;18.00;98011.00;;;;5091896;28;20040;-67
2023/08/29 07:09:58;;;;;;;12.77;10.98;;;;;18.10;98010.00;;;;5091680;28;20044;-67
2023/08/29 07:12:24;;;;;;;14.82;11.45;;;;;18.10;98009.00;;;;5091996;28;20044;-67
2023/08/29 07:14:51;;;;;;;17.00;10.85;;;;;18.20;97998.00;;;;5090413;28;20642;-67
2023/08/29 07:17:17;;;;;;;20.33;12.23;;;;;18.30;98001.00;;;;5090411;28;20051;-66
2023/08/29 07:19:44;;;;;;;14.38;11.77;;;;;18.40;98011.00;;;;5091520;28;20043;-67
2023/08/29 07:22:11;;;;;;;14.38;11.82;;;;;18.50;98010.00;;;;5073703;28;20164;-67
2023/08/29 07:24:51;;;;;;;15.18;11.77;;;;;18.50;98006.00;;;;5091630;28;20040;-67
2023/08/29 07:27:18;;;;;;;19.67;12.95;;;;;18.50;98014.00;;;;5091719;28;20040;-67
2023/08/29 07:29:45;;;;;;;15.07;11.82;;;;;18.50;98015.00;;;;5091577;28;20044;-67
2023/08/29 07:32:11;;;;;;;14.85;12.15;;;;;18.60;98015.00;;;;5091572;28;20052;-67
2023/08/29 07:34:39;;;;;;;16.67;12.48;;;;;18.70;98024.00;;;;5091451;28;20140;-67
2023/08/29 07:37:06;;;;;;;13.20;11.57;;;;;18.80;98032.00;;;;5091895;28;20414;-67
2023/08/29 07:39:34;;;;;;;15.00;12.10;;;;;18.80;98037.00;;;;5091400;28;20048;-67
2023/08/29 07:42:01;;;;;;;15.23;12.48;;;;;18.90;98035.00;;;;5092207;28;20047;-66
2023/08/29 07:44:29;;;;;;;14.15;11.73;;;;;18.90;98035.00;;;;5093845;28;20040;-67
2023/08/29 07:46:56;;;;;;;13.80;10.65;;;;;19.00;98035.00;;;;5093759;28;20052;-67
2023/08/29 07:49:40;;;;;;;15.60;11.90;;;;;19.10;98039.00;;;;5094630;28;20044;-67
2023/08/29 07:52:06;;;;;;;12.45;11.10;;;;;19.10;98045.00;;;;5094936;28;20043;-66
2023/08/29 07:54:33;;;;;;;14.50;11.57;;;;;19.10;98044.00;;;;5093608;28;20032;-67
2023/08/29 07:57:00;;;;;;;14.50;11.68;;;;;19.20;98044.00;;;;5094811;28;20385;-66
2023/08/29 07:59:27;;;;;;;11.52;10.43;;;;;19.30;98047.00;;;;5094481;28;20059;-67
2023/08/29 08:01:54;;;;;;;12.57;10.85;;;;;19.40;98048.00;;;;5095096;28;20055;-68
2023/08/29 08:04:21;;;;;;;11.52;9.90;;;;;19.40;98048.00;;;;5094596;28;20397;-67
2023/08/29 08:06:47;;;;;;;11.13;9.98;;;;;19.40;98050.00;;;;5094780;28;20119;-68
2023/08/29 08:09:15;;;;;;;13.38;10.18;;;;;19.40;98051.00;;;;5094424;28;20089;-68
2023/08/29 08:11:41;;;;;;;12.88;9.93;;;;;19.50;98049.00;;;;5094517;28;20044;-67
2023/08/29 08:14:08;;;;;;;11.98;9.90;;;;;19.60;98054.00;;;;5093103;28;20043;-67
2023/08/29 08:16:35;;;;;;;13.05;10.48;;;;;19.70;98053.00;;;;5094455;28;20044;-67
2023/08/29 08:19:01;;;;;;;16.80;10.32;;;;;19.90;98063.00;;;;5093275;28;20088;-68
2023/08/29 08:21:28;;;;;;;14.63;13.13;;;;;19.80;98055.00;;;;5092802;28;20036;-67
2023/08/29 08:23:55;;;;;;;12.60;10.82;;;;;19.60;98045.00;;;;5094562;28;20051;-67
2023/08/29 08:26:21;;;;;;;10.40;9.25;;;;;19.40;98055.00;;;;5094250;28;20100;-67
2023/08/29 08:28:49;;;;;;;11.45;10.25;;;;;19.30;98062.00;;;;5094146;28;20538;-67
2023/08/29 08:31:15;;;;;;;12.00;9.25;;;;;19.30;98057.00;;;;5094182;28;20044;-67
2023/08/29 08:33:43;;;;;;;14.75;9.73;;;;;19.40;98060.00;;;;5093059;28;20484;-67
2023/08/29 08:36:09;;;;;;;13.85;9.73;;;;;19.40;98057.00;;;;5093056;28;20474;-66
2023/08/29 08:38:36;;;;;;;15.27;10.77;;;;;19.50;98064.00;;;;5094400;28;20043;-66
2023/08/29 08:41:03;;;;;;;11.40;9.18;;;;;19.50;98057.00;;;;5094061;28;20126;-66
2023/08/29 08:43:31;;;;;;;12.50;9.98;;;;;19.60;98062.00;;;;5094045;28;20520;-67
2023/08/29 08:45:58;;;;;;;14.85;10.00;;;;;19.70;98067.00;;;;5075745;28;20139;-66
2023/08/29 08:48:25;;;;;;;11.90;9.25;;;;;19.70;98070.00;;;;5093797;28;20036;-67
2023/08/29 08:50:52;;;;;;;10.88;9.55;;;;;19.80;98070.00;;;;5093579;28;20075;-67
2023/08/29 08:53:22;;;;;;;10.98;8.52;;;;;19.80;98069.00;;;;5092418;28;20052;-68
2023/08/29 08:55:50;;;;;;;12.65;8.93;;;;;19.80;98070.00;;;;5092039;28;20139;-66
2023/08/29 08:58:18;;;;;;;15.90;10.13;;;;;19.90;98068.00;;;;5093545;28;20044;-66
2023/08/29 09:00:45;;;;;;;15.38;10.75;;;;;20.00;98076.00;;;;5093368;28;20040;-66
2023/08/29 09:03:14;;;;;;;16.13;10.48;;;;;20.10;98069.00;;;;5075524;28;20488;-66
2023/08/29 09:05:42;;;;;;;15.32;10.63;;;;;20.20;98079.00;;;;5093248;28;20040;-67
2023/08/29 09:08:08;;;;;;;13.82;9.80;;;;;20.30;98075.00;;;;5093454;28;20047;-67
2023/08/29 09:10:40;;;;;;;13.70;9.82;;;;;20.30;98075.00;;;;5075182;28;20067;-67
2023/08/29 09:13:15;;;;;;;10.98;9.20;;;;;20.30;98062.00;;;;5093384;28;20126;-67
2023/08/29 09:15:42;;;;;;;12.57;8.85;;;;;20.40;98062.00;;;;5093319;28;20119;-66
2023/08/29 09:18:13;;;;;;;10.43;8.45;;;;;20.60;98071.00;;;;5093384;28;20680;-67
2023/08/29 09:20:43;;;;;;;9.57;6.75;;;;;20.60;98063.00;;;;5092947;28;20040;-67
2023/08/29 09:23:23;;;;;;;8.27;7.30;;;;;20.80;98061.00;;;;5093437;28;20082;-67
2023/08/29 09:25:57;;;;;;;7.85;7.05;;;;;21.00;98069.00;;;;5092286;28;20115;-67
2023/08/29 09:28:29;;;;;;;9.02;7.15;;;;;21.20;98059.00;;;;5093743;28;20127;-67
2023/08/29 09:31:03;;;;;;;12.63;7.75;;;;;21.40;98068.00;;;;5093537;28;20051;-66
2023/08/29 09:33:30;;;;;;;6.75;6.07;;;;;21.50;98059.00;;;;5092383;28;20052;-67
2023/08/29 09:36:00;;;;;;;11.98;6.35;;;;;21.50;98072.00;;;;5093208;28;20038;-67
2023/08/29 09:38:31;;;;;;;7.32;6.63;;;;;21.30;98059.00;;;;5092935;28;20040;-67
2023/08/29 09:40:58;;;;;;;7.97;6.25;;;;;21.30;98067.00;;;;5092861;28;20063;-66
2023/08/29 09:43:27;;;;;;;7.68;6.57;;;;;21.30;98052.00;;;;5093273;28;20036;-66
2023/08/29 09:45:55;;;;;;;7.53;5.50;;;;;21.50;98048.00;;;;5091183;28;20493;-67
2023/08/29 09:48:22;;;;;;;10.95;8.50;;;;;21.80;98056.00;;;;5092535;28;20055;-68
2023/08/29 09:50:50;;;;;;;7.60;6.47;;;;;22.10;98043.00;;;;5092444;28;20040;-68
2023/08/29 09:53:19;;;;;;;7.50;5.47;;;;;22.30;98049.00;;;;5092970;28;20044;-68
2023/08/29 09:55:51;;;;;;;5.30;4.80;;;;;22.10;98046.00;;;;5091421;28;20048;-68
2023/08/29 09:58:22;;;;;;;6.43;4.43;;;;;22.00;98048.00;;;;5092762;28;20047;-68
2023/08/29 10:00:51;;;;;;;8.52;5.18;;;;;22.10;98044.00;;;;5091208;28;20056;-67
2023/08/29 10:03:18;;;;;;;4.95;3.90;;;;;22.40;98047.00;;;;5092488;28;20505;-68
2023/08/29 10:05:45;;;;;;;5.68;4.43;;;;;22.50;98043.00;;;;5073827;28;20050;-67
2023/08/29 10:08:18;;;;;;;5.65;3.80;;;;;22.60;98040.00;;;;5092462;28;20467;-68
2023/08/29 10:10:46;;;;;;;6.53;4.27;;;;;22.60;98040.00;;;;5091025;28;20048;-67
2023/08/29 10:13:15;;;;;;;4.20;3.80;;;;;22.50;98030.00;;;;5092298;28;20871;-67
2023/08/29 10:15:44;;;;;;;4.60;3.95;;;;;22.30;98035.00;;;;5092526;28;20075;-67
2023/08/29 10:18:11;;;;;;;3.70;3.28;;;;;22.40;98030.00;;;;5092473;28;20048;-67
2023/08/29 10:20:43;;;;;;;4.50;3.45;;;;;22.40;98030.00;;;;5091002;28;20513;-67
2023/08/29 10:23:12;;;;;;;11.05;5.57;;;;;22.50;98034.00;;;;5091071;28;20043;-67
2023/08/29 10:25:39;;;;;;;9.80;4.93;;;;;22.50;98028.00;;;;5092135;28;20077;-67
2023/08/29 10:28:11;;;;;;;5.18;3.65;;;;;22.50;98033.00;;;;5091012;28;20051;-68
2023/08/29 10:30:45;;;;;;;3.45;2.75;;;;;22.30;98031.00;;;;5091890;28;20052;-67
2023/08/29 10:33:12;;;;;;;4.45;2.70;;;;;22.20;98031.00;;;;5092544;28;20139;-66
2023/08/29 10:35:38;;;;;;;3.55;2.50;;;;;22.10;98026.00;;;;5092561;28;20040;-66
2023/08/29 10:38:15;;;;;;;3.15;2.38;;;;;22.20;98033.00;;;;5091311;28;20225;-67
2023/08/29 10:40:43;;;;;;;6.00;2.58;;;;;22.30;98031.00;;;;5092144;28;20055;-66
2023/08/29 10:43:22;;;;;;;3.88;2.75;;;;;22.40;98035.00;;;;5092492;28;20489;-67
2023/08/29 10:45:52;;;;;;;4.82;2.95;;;;;22.40;98038.00;;;;5090936;28;20050;-67
2023/08/29 10:48:20;;;;;;;5.80;2.95;;;;;22.40;98036.00;;;;5091193;28;20477;-67
2023/08/29 10:51:22;;;;;;;5.55;3.42;;;;;22.40;98037.00;;;;5074696;28;20063;-67
2023/08/29 10:53:54;;;;;;;10.43;5.03;;;;;22.60;98035.00;;;;5091184;28;20044;-67
2023/08/29 10:56:24;;;;;;;4.15;3.00;;;;;22.60;98029.00;;;;5091224;28;20056;-67
2023/08/29 10:58:54;;;;;;;4.38;2.75;;;;;22.80;98030.00;;;;5090707;28;20126;-68
2023/08/29 11:01:24;;;;;;;4.93;3.40;;;;;23.10;98015.00;;;;5092261;28;20044;-67
2023/08/29 11:03:51;;;;;;;7.13;4.43;;;;;23.50;98017.00;;;;5090901;28;20058;-67
2023/08/29 11:06:19;;;;;;;7.07;4.10;;;;;23.70;98022.00;;;;5091588;28;20046;-67
2023/08/29 11:08:46;;;;;;;3.97;3.05;;;;;23.80;98024.00;;;;5092015;28;20123;-68
2023/08/29 11:11:16;;;;;;;9.05;3.47;;;;;23.50;98014.00;;;;5091523;28;20153;-68
2023/08/29 11:14:06;;;;;;;4.03;3.60;;;;;23.30;98022.00;;;;5090785;28;20097;-67
2023/08/29 11:16:35;;;;;;;4.35;3.63;;;;;23.10;98028.00;;;;5090414;28;20139;-69
2023/08/29 11:19:09;;;;;;;4.97;3.17;;;;;22.90;98028.00;;;;5095548;28;20497;-67
2023/08/29 11:21:36;;;;;;;4.28;2.92;;;;;22.80;98026.00;;;;5095596;28;20071;-66
2023/08/29 11:24:06;;;;;;;4.47;3.70;;;;;22.70;98028.00;;;;5096107;28;20044;-67
2023/08/29 11:26:40;;;;;;;3.73;2.97;;;;;22.60;98028.00;;;;5095100;28;20409;-67
2023/08/29 11:29:07;;;;;;;7.00;3.05;;;;;22.50;98034.00;;;;5094552;28;20278;-68
2023/08/29 11:31:45;;;;;;;4.18;3.08;;;;;22.50;98028.00;;;;5095416;28;20127;-68
2023/08/29 11:34:17;;;;;;;4.80;3.17;;;;;22.30;98033.00;;;;5094402;28;20458;-68
2023/08/29 11:36:50;;;;;;;8.82;3.33;;;;;22.10;98038.00;;;;5095828;28;20044;-68
2023/08/29 11:39:21;;;;;;;3.83;3.43;;;;;22.00;98030.00;;;;5094186;28;20080;-68
2023/08/29 11:41:48;;;;;;;4.85;3.15;;;;;21.90;98033.00;;;;5095405;28;20282;-68
2023/08/29 11:44:34;;;;;;;5.85;3.97;;;;;21.60;98030.00;;;;5080745;28;20047;-67
2023/08/29 11:47:23;;;;;;;4.72;3.72;;;;;21.50;98030.00;;;;5095535;28;20183;-67
2023/08/29 11:49:51;;;;;;;4.05;3.60;;;;;21.50;98030.00;;;;5095648;28;20489;-67
2023/08/29 11:52:18;;;;;;;4.88;3.80;;;;;21.40;98025.00;;;;5095110;28;20105;-67
2023/08/29 11:54:52;;;;;;;3.67;3.30;;;;;21.30;98027.00;;;;5094121;28;20126;-68
2023/08/29 11:57:19;;;;;;;3.50;3.20;;;;;21.20;98021.00;;;;5095578;28;20047;-67
2023/08/29 11:59:47;;;;;;;3.58;2.25;;;;;21.20;98027.00;;;;5076772;28;20040;-67
2023/08/29 12:02:16;;;;;;;3.80;2.58;;;;;21.40;98023.00;;;;5094701;28;20044;-67
2023/08/29 12:04:47;;;;;;;4.00;3.10;;;;;21.40;98021.00;;;;5093597;28;20122;-67
2023/08/29 12:07:15;;;;;;;4.07;2.92;;;;;21.60;98023.00;;;;5076470;28;20069;-67
2023/08/29 12:09:44;;;;;;;3.15;2.35;;;;;21.80;98027.00;;;;5093187;28;20067;-67
2023/08/29 12:12:28;;;;;;;3.25;2.08;;;;;21.90;98025.00;;;;5094654;28;20044;-67
2023/08/29 12:14:54;;;;;;;3.90;2.50;;;;;21.90;98021.00;;;;5076435;28;20044;-67
2023/08/29 12:17:22;;;;;;;2.42;2.22;;;;;22.00;98021.00;;;;5093259;28;20044;-67
2023/08/29 12:19:49;;;;;;;3.95;2.30;;;;;22.20;98016.00;;;;5094220;28;20040;-67